createdAt,value
2022-12-17T05:02:55.823Z,100541.47
2022-12-17T05:07:16.116Z,100550.31
2022-12-17T05:11:36.652Z,100558.09
2022-12-17T05:15:56.947Z,100565.38
2022-12-17T05:20:18.318Z,100562.94
2022-12-17T05:24:38.767Z,100569.78
2022-12-17T05:28:59.090Z,100581.22
2022-12-17T05:33:20.430Z,100580.09
2022-12-17T05:37:42.248Z,100591.34
2022-12-17T05:41:58.760Z,100589.22
2022-12-17T05:46:19.370Z,100592.78
2022-12-17T05:50:39.561Z,100595.50
2022-12-17T05:55:01.089Z,100588.09
2022-12-17T05:59:32.981Z,100607.06
2022-12-17T06:03:53.494Z,100601.34
2022-12-17T06:08:21.161Z,100612.94
2022-12-17T06:12:42.672Z,100616.88
2022-12-17T06:17:02.959Z,100620.38
2022-12-17T06:21:23.498Z,100624.91
2022-12-17T06:25:43.673Z,100631.75
2022-12-17T06:30:05.318Z,100626.25
2022-12-17T06:34:25.747Z,100643.03
2022-12-17T06:38:45.837Z,100642.25
2022-12-17T06:43:11.272Z,100644.56
2022-12-17T06:47:32.853Z,100645.84
2022-12-17T06:51:52.928Z,100651.63
2022-12-17T06:56:15.781Z,100660.16
2022-12-17T07:00:36.203Z,100672.19
2022-12-17T07:05:05.993Z,100686.34
2022-12-17T07:09:37.811Z,100693.72
2022-12-17T07:13:58.127Z,100701.66
2022-12-17T07:18:19.943Z,100697.09
2022-12-17T07:27:59.507Z,100706.78
2022-12-17T07:32:19.901Z,100718.06
2022-12-17T07:36:40.387Z,100730.22
2022-12-17T07:41:00.334Z,100730.00
2022-12-17T07:45:21.974Z,100738.56
2022-12-17T07:49:42.405Z,100732.78
2022-12-17T07:54:02.835Z,100748.41
2022-12-17T07:58:24.642Z,100738.53
2022-12-17T08:02:46.380Z,100752.41
2022-12-17T08:07:11.162Z,100756.50
2022-12-17T08:11:33.482Z,100761.81
2022-12-17T08:15:53.830Z,100775.34
2022-12-17T08:20:15.244Z,100763.84
2022-12-17T08:24:35.758Z,100774.63
2022-12-17T08:28:56.029Z,100780.06
2022-12-17T08:33:21.295Z,100778.19
2022-12-17T08:37:42.773Z,100784.19
2022-12-17T08:42:05.826Z,100793.34
2022-12-17T08:46:26.473Z,100799.28
2022-12-17T08:50:46.628Z,100788.22
2022-12-17T08:55:08.241Z,100791.66
2022-12-17T08:59:28.687Z,100789.53
2022-12-17T09:03:48.935Z,100793.13
2022-12-17T09:08:17.564Z,100800.16
2022-12-17T09:12:39.146Z,100801.13
2022-12-17T09:16:59.585Z,100807.41
2022-12-17T09:21:22.056Z,100805.59
2022-12-17T09:25:42.364Z,100816.69
2022-12-17T09:30:03.898Z,100818.19
2022-12-17T09:34:24.301Z,100808.97
2022-12-17T09:38:44.755Z,100810.72
2022-12-17T09:43:13.239Z,100809.69
2022-12-17T09:47:45.014Z,100813.47
2022-12-17T09:52:05.390Z,100813.63
2022-12-17T09:56:29.316Z,100812.78
2022-12-17T10:00:49.609Z,100823.59
2022-12-17T10:05:11.350Z,100819.47
2022-12-17T10:09:33.944Z,100816.97
2022-12-17T10:13:54.366Z,100825.91
2022-12-17T10:18:14.680Z,100826.56
2022-12-17T10:22:39.326Z,100829.34
2022-12-17T10:27:07.027Z,100822.56
2022-12-17T10:31:29.457Z,100817.66
2022-12-17T10:35:55.992Z,100821.47
2022-12-17T10:40:20.497Z,100819.69
2022-12-17T10:44:45.600Z,100810.81
2022-12-17T10:49:11.234Z,100823.38
2022-12-17T10:53:38.037Z,100820.06
2022-12-17T10:58:01.392Z,100823.97
2022-12-17T11:02:21.992Z,100838.41
2022-12-17T11:06:45.982Z,100834.16
2022-12-17T11:11:07.699Z,100833.16
2022-12-17T11:15:37.886Z,100836.91
2022-12-17T11:20:05.570Z,100836.09
2022-12-17T11:24:37.552Z,100835.28
2022-12-17T11:28:58.098Z,100836.91
2022-12-17T11:33:28.139Z,100832.69
2022-12-17T11:37:56.625Z,100827.69
2022-12-17T11:42:28.558Z,100835.81
2022-12-17T11:46:58.544Z,100849.16
2022-12-17T11:51:28.558Z,100852.13
2022-12-17T11:55:55.485Z,100842.53
2022-12-17T12:00:20.671Z,100830.97
2022-12-17T12:04:57.364Z,100825.59
2022-12-17T12:09:28.099Z,100823.34
2022-12-17T12:13:56.961Z,100825.53
2022-12-17T12:18:22.868Z,100823.81
2022-12-17T12:22:51.209Z,100828.66
2022-12-17T12:27:24.746Z,100832.09
2022-12-17T12:31:50.119Z,100824.47
2022-12-17T12:36:11.980Z,100817.56
2022-12-17T12:40:39.475Z,100824.81
2022-12-17T12:45:08.480Z,100821.44
2022-12-17T12:49:38.453Z,100826.09
2022-12-17T12:53:58.838Z,100830.78
2022-12-17T12:58:26.961Z,100829.00
2022-12-17T13:02:50.943Z,100830.59
2022-12-17T13:06:55.321Z,100843.47
2022-12-17T13:10:58.095Z,100833.75
2022-12-17T13:15:16.740Z,100838.19
2022-12-17T13:19:33.495Z,100835.56
2022-12-17T13:23:37.968Z,100829.06
2022-12-17T13:27:41.766Z,100831.63
2022-12-17T13:31:55.127Z,100830.09
2022-12-17T13:36:04.221Z,100837.59
2022-12-17T13:40:24.495Z,100832.13
2022-12-17T13:44:36.718Z,100843.19
2022-12-17T13:48:39.778Z,100851.72
2022-12-17T13:52:43.877Z,100852.44
2022-12-17T13:56:47.303Z,100852.19
2022-12-17T14:00:49.969Z,100854.56
2022-12-17T14:04:53.985Z,100857.75
2022-12-17T14:08:59.276Z,100862.94
2022-12-17T14:13:07.100Z,100872.66
2022-12-17T14:17:18.816Z,100872.94
2022-12-17T14:21:22.983Z,100866.44
2022-12-17T14:25:30.399Z,100868.56
2022-12-17T14:29:33.475Z,100872.75
2022-12-17T14:33:37.942Z,100881.72
2022-12-17T14:37:41.189Z,100880.81
2022-12-17T14:42:02.262Z,100888.22
2022-12-17T14:46:23.327Z,100887.25
2022-12-17T14:50:30.962Z,100885.19
2022-12-17T14:54:33.565Z,100884.69
2022-12-17T14:58:46.485Z,100883.34
2022-12-17T15:02:53.397Z,100892.00
2022-12-17T15:06:56.734Z,100890.38
2022-12-17T15:10:59.202Z,100891.41
2022-12-17T15:15:03.198Z,100901.56
2022-12-17T15:23:18.643Z,100904.03
2022-12-17T15:27:21.286Z,100902.88
2022-12-17T15:31:26.090Z,100905.31
2022-12-17T15:35:31.104Z,100914.91
2022-12-17T15:39:35.074Z,100922.34
2022-12-17T15:43:37.708Z,100916.66
2022-12-17T15:47:40.303Z,100932.47
2022-12-17T15:51:42.930Z,100924.59
2022-12-17T15:55:47.022Z,100919.44
2022-12-17T15:59:49.646Z,100916.91
2022-12-17T16:03:52.294Z,100914.97
2022-12-17T16:07:58.797Z,100925.81
2022-12-17T16:12:02.746Z,100932.97
2022-12-17T16:16:06.499Z,100935.91
2022-12-17T16:20:10.166Z,100938.69
2022-12-17T16:24:12.882Z,100940.59
2022-12-17T16:28:17.095Z,100950.38
2022-12-17T16:32:19.786Z,100942.59
2022-12-17T16:36:22.897Z,100950.66
2022-12-17T16:40:25.328Z,100952.66
2022-12-17T16:44:29.266Z,100947.78
2022-12-17T16:48:38.483Z,100957.69
2022-12-17T16:52:41.402Z,100964.19
2022-12-17T16:56:45.586Z,100968.22
2022-12-17T17:00:54.805Z,100965.41
2022-12-17T17:04:57.415Z,100969.00
2022-12-17T17:09:00.048Z,100968.00
2022-12-17T17:13:02.746Z,100966.16
2022-12-17T17:17:06.701Z,100971.63
2022-12-17T17:21:23.266Z,100982.81
2022-12-17T17:25:38.513Z,100992.00
2022-12-17T17:29:48.638Z,100995.03
2022-12-17T17:33:53.674Z,100992.41
2022-12-17T17:37:56.276Z,101002.41
2022-12-17T17:41:58.915Z,101007.19
2022-12-17T17:46:05.801Z,101011.69
2022-12-17T17:50:10.580Z,101007.47
2022-12-17T17:54:14.492Z,101015.25
2022-12-17T17:58:17.306Z,101025.88
2022-12-17T18:02:20.008Z,101016.53
2022-12-17T18:06:24.781Z,101012.19
2022-12-17T18:10:27.419Z,101021.66
2022-12-17T18:14:30.146Z,101022.03
2022-12-17T18:18:32.978Z,101032.66
2022-12-17T18:22:37.006Z,101030.00
2022-12-17T18:26:42.626Z,101040.38
2022-12-17T18:30:45.303Z,101042.19
2022-12-17T18:34:48.294Z,101054.91
2022-12-17T18:38:58.626Z,101041.84
2022-12-17T18:43:19.096Z,101054.13
2022-12-17T18:47:22.027Z,101056.72
2022-12-17T18:51:24.666Z,101053.19
2022-12-17T18:55:28.925Z,101056.09
2022-12-17T18:59:32.338Z,101063.00
2022-12-17T19:03:35.255Z,101064.66
2022-12-17T19:07:38.165Z,101067.22
2022-12-17T19:11:43.721Z,101067.28
2022-12-17T19:15:48.679Z,101069.81
2022-12-17T19:19:51.278Z,101068.16
2022-12-17T19:23:57.518Z,101075.31
2022-12-17T19:33:18.643Z,101076.81
2022-12-17T19:37:21.305Z,101085.44
2022-12-17T19:41:24.828Z,101081.19
2022-12-17T19:45:28.853Z,101077.88
2022-12-17T19:49:35.220Z,101075.34
2022-12-17T19:53:39.700Z,101077.25
2022-12-17T19:57:42.766Z,101079.97
2022-12-17T20:01:48.445Z,101079.13
2022-12-17T20:05:51.226Z,101076.56
2022-12-17T20:09:53.979Z,101090.69
2022-12-17T20:14:01.243Z,101094.38
2022-12-17T20:18:05.494Z,101093.41
2022-12-17T20:22:08.277Z,101087.06
2022-12-17T20:26:12.289Z,101097.56
2022-12-17T20:30:15.116Z,101102.91
2022-12-17T20:34:19.942Z,101094.22
2022-12-17T20:38:23.012Z,101084.66
2022-12-17T20:42:25.606Z,101091.81
2022-12-17T20:46:28.251Z,101114.59
2022-12-17T20:50:32.269Z,101110.34
2022-12-17T20:54:35.341Z,101125.13
2022-12-17T20:58:39.168Z,101127.03
2022-12-17T21:02:42.086Z,101134.75
2022-12-17T21:06:46.810Z,101134.06
2022-12-17T21:10:49.482Z,101146.38
2022-12-17T21:14:52.080Z,101139.44
2022-12-17T21:18:54.778Z,101143.81
2022-12-17T21:22:58.796Z,101155.88
2022-12-17T21:27:01.448Z,101156.69
2022-12-17T21:31:04.952Z,101145.34
2022-12-17T21:35:08.302Z,101155.09
2022-12-17T21:39:13.550Z,101150.63
2022-12-17T21:43:16.173Z,101149.63
2022-12-17T21:47:18.796Z,101152.97
2022-12-17T21:51:22.321Z,101150.47
2022-12-17T21:55:27.166Z,101161.78
2022-12-17T21:59:29.940Z,101178.41
